• Join FlightAware (Why Join?)
  • Login
  • US Flag 
01:08AM EDT


 

Airport Tracker/Info


-or-


 

Live Flight TrackerFlight Track Log ✈ N75AW ✈ 04-Jun-2013 ✈ KTLH - KAPF

Flight Track Log - Related Links

Times and Time Zones

All times are in EDT time to prevent confusion due to time zone crossing. See the N75AW flight status page for this flight to view local times or setup timezone preferences in your user account.

Time Position Orientation Groundspeed Altitude Reporting Facility
EDT Latitude Longitude Course Direction KTS MPH feet Rate Location/Type
05:02PM 30.3072 -84.2592 154° Southeast 160 184 6,200  Level Jacksonville Center
05:03PM 30.2806 -84.2181 127° Southeast 155 178 8,400 2,040 Climbing Jacksonville Center
05:04PM 30.2517 -84.1839 134° Southeast 149 171 10,300 1,860 Climbing Jacksonville Center
05:05PM 30.2164 -84.1569 147° Southeast 154 177 12,200 1,920 Climbing Jacksonville Center
05:06PM 30.3441 -84.2244 148° Southeast  Level FlightAware Approximate
05:06PM 30.1750 -84.1300 151° Southeast 166 191 14,200  Level Jacksonville Center
05:07PM 30.2834 -84.1889 154° Southeast  Level FlightAware Approximate
05:07PM 30.1356 -84.1006 147° Southeast 166 191 16,200  Level Jacksonville Center
05:08PM 30.2221 -84.1548 154° Southeast  Level FlightAware Approximate
05:08PM 30.0939 -84.0736 151° Southeast 171 197 18,100  Level Jacksonville Center
05:09PM 30.0525 -84.0469 151° Southeast 171 197 19,700 1,320 Climbing Jacksonville Center
05:10PM 30.0131 -84.0175 147° Southeast 171 197 20,800 660 Climbing Jacksonville Center
05:11PM 29.9611 -83.9883 154° Southeast 187 215 21,100 60 Climbing Jacksonville Center
05:12PM 29.8989 -83.9444 149° Southeast 225 259 21,000 -60 Descending Jacksonville Center
05:13PM 29.8283 -83.9006 152° Southeast 258 297 21,000  Level Jacksonville Center
05:14PM 29.7639 -83.8567 149° Southeast 272 313 21,000  Level Jacksonville Center
05:15PM 29.6933 -83.8131 152° Southeast 283 326 21,000  Level Jacksonville Center
05:16PM 29.6247 -83.7717 152° Southeast 283 326 21,000  Level Jacksonville Center
05:17PM 29.5561 -83.7258 150° Southeast 283 326 21,000  Level Jacksonville Center
05:18PM 29.4875 -83.6800 150° Southeast 283 326 21,000  Level Jacksonville Center
05:19PM 29.4167 -83.6342 151° Southeast 288 331 21,000  Level Jacksonville Center
05:20PM 29.3417 -83.6097 164° South 288 331 21,000  Level Jacksonville Center
05:21PM 29.2667 -83.5900 167° South 283 326 21,000  Level Jacksonville Center
05:22PM 29.1894 -83.5706 168° South 283 326 21,000  Level Jacksonville Center
05:23PM 29.1125 -83.5486 166° South 283 326 21,000  Level Jacksonville Center
05:24PM 29.0353 -83.5292 168° South 283 326 21,000  Level Jacksonville Center
05:25PM 28.9581 -83.5119 169° South 283 326 21,000  Level Jacksonville Center
05:26PM 28.8811 -83.4972 170° South 283 326 21,000  Level Jacksonville Center
05:27PM 28.8039 -83.4778 168° South 283 326 21,000  Level Jacksonville Center
05:28PM 28.7267 -83.4583 168° South 283 326 21,000  Level Jacksonville Center
05:29PM 28.6517 -83.4461 172° South 278 320 21,000  Level Jacksonville Center
05:32PM 28.4642 -83.4056 169° South 278 320 21,000  Level Miami Center
05:33PM 28.3878 -83.3869 168° South 283 326 21,000  Level Miami Center
05:34PM 28.3094 -83.3706 170° South 288 331 21,000  Level Miami Center
05:35PM 28.2239 -83.3681 179° South 288 331 21,000  Level Miami Center
05:36PM 28.1467 -83.3683 180° South 288 331 21,000  Level Miami Center
05:37PM 28.0781 -83.3219 149° Southeast 274 315 21,000  Level Miami Center
05:38PM 28.0133 -83.2736 147° Southeast 279 321 21,000  Level Miami Center
05:39PM 27.9444 -83.2322 152° Southeast 279 321 21,000  Level Miami Center
05:40PM 27.8775 -83.1861 149° Southeast 279 321 21,000  Level Miami Center
05:41PM 27.8128 -83.1428 149° Southeast 279 321 21,000  Level Miami Center
05:42PM 27.7458 -83.0967 149° Southeast 279 321 21,000  Level Miami Center
05:43PM 27.6789 -83.0533 150° Southeast 279 321 21,000  Level Miami Center
05:44PM 27.6139 -83.0122 151° Southeast 279 321 21,000  Level Miami Center
05:45PM 27.5450 -82.9664 149° Southeast 279 321 21,000 -480 Level Miami Center
05:46PM 27.4758 -82.9208 150° Southeast 279 321 20,100 -1,020 Descending Miami Center
05:47PM 27.4028 -82.8725 150° Southeast 290 334 19,000 -960 Descending Miami Center
05:48PM 27.3278 -82.8242 150° Southeast 297 342 18,200 -780 Descending Miami Center
05:49PM 27.2606 -82.7808 150° Southeast 297 342 17,500 -780 Descending Miami Center
05:50PM 27.1914 -82.7356 150° Southeast 297 342 16,700 -780 Descending Miami Center
05:51PM 27.1222 -82.6922 151° Southeast 292 336 16,000 -660 Descending Miami Center
05:52PM 27.0533 -82.6469 150° Southeast 292 336 15,400 -660 Descending Miami Center
05:53PM 26.9842 -82.6014 150° Southeast 287 330 14,700 -660 Descending Miami Center
05:54PM 26.9189 -82.5586 150° Southeast 281 323 14,100 -720 Descending Miami Center
05:55PM 26.8497 -82.5158 151° Southeast 281 323 13,300 -900 Descending Miami Center
05:56PM 26.7844 -82.4731 150° Southeast 281 323 12,400 -900 Descending Miami Center
05:57PM 26.7194 -82.4306 150° Southeast 281 323 11,500 -900 Descending Miami Center
05:58PM 26.6542 -82.3903 151° Southeast 276 318 10,600 -720 Descending Miami Center
05:59PM 26.5972 -82.3528 150° Southeast 264 304 10,100 -300 Descending Miami Center
06:00PM 26.5422 -82.3153 149° Southeast 247 284 10,000 -60 Descending Miami Center
06:01PM 26.4853 -82.2756 148° Southeast 247 284 10,000 -420 Level Miami Center
06:02PM 26.4281 -82.2383 150° Southeast 242 278 9,200 -840 Descending Miami Center
06:04PM 26.3209 -82.1464 142° Southeast  Level FlightAware Approximate
06:11PM 26.1524 -81.7756 66° East  Level Estimated
06:12PM 26.1524 -81.7756 66° East  Level Estimated
06:13PM 26.1524 -81.7756 66° East  Level Estimated
06:14PM 26.1524 -81.7756 66° East  Level Estimated
06:15PM 26.1524 -81.7756 66° East  Level Estimated
06:16PM 26.1524 -81.7756 66° East  Level Estimated
06:17PM 26.1524 -81.7756 66° East  Level Estimated
06:18PM 26.1524 -81.7756 66° East  Level Estimated
06:19PM 26.1524 -81.7756 66° East  Level Estimated
06:20PM 26.1524 -81.7756 66° East  Level Estimated
06:21PM 26.1524 -81.7756 66° East  Level Estimated
06:22PM 26.1524 -81.7756 66° East  Level Estimated
06:23PM 26.1524 -81.7756 66° East  Level Estimated
06:24PM 26.1524 -81.7756 66° East  Level Estimated
06:25PM 26.1524 -81.7756 66° East  Level Estimated